createdAt,value
2023-02-18T00:01:13.534Z,2.40
2023-02-18T00:03:44.063Z,2.37
2023-02-18T00:06:35.634Z,2.34
2023-02-18T00:09:06.821Z,2.32
2023-02-18T00:11:37.433Z,2.29
2023-02-18T00:14:13.785Z,2.25
2023-02-18T00:16:44.679Z,2.22
2023-02-18T00:19:20.005Z,2.21
2023-02-18T00:21:50.862Z,2.20
2023-02-18T00:24:22.810Z,2.18
2023-02-18T00:26:55.229Z,2.18
2023-02-18T00:29:26.471Z,2.17
2023-02-18T00:31:56.696Z,2.16
2023-02-18T00:34:26.616Z,2.19
2023-02-18T00:36:57.633Z,2.16
2023-02-18T00:39:27.207Z,2.19
2023-02-18T00:41:57.276Z,2.22
2023-02-18T00:44:27.642Z,2.26
2023-02-18T00:47:00.272Z,2.29
2023-02-18T00:49:30.760Z,2.33
2023-02-18T00:52:00.794Z,2.38
2023-02-18T00:54:30.803Z,2.43
2023-02-18T00:57:01.903Z,2.49
2023-02-18T00:59:36.774Z,2.55
2023-02-18T01:02:08.291Z,2.59
2023-02-18T01:04:37.588Z,2.62
2023-02-18T01:07:08.573Z,2.65
2023-02-18T01:09:40.139Z,2.67
2023-02-18T01:12:10.664Z,2.70
2023-02-18T01:14:41.316Z,2.72
2023-02-18T01:17:11.336Z,2.72
2023-02-18T01:19:43.605Z,2.71
2023-02-18T01:22:14.464Z,2.70
2023-02-18T01:24:49.368Z,2.70
2023-02-18T01:27:20.226Z,2.70
2023-02-18T01:29:49.926Z,2.68
2023-02-18T01:32:24.208Z,2.66
2023-02-18T01:34:53.619Z,2.65
2023-02-18T01:37:23.296Z,2.62
2023-02-18T01:39:54.194Z,2.59
2023-02-18T01:42:29.948Z,2.57
2023-02-18T01:45:39.672Z,2.55
2023-02-18T01:48:43.012Z,2.51
2023-02-18T01:51:18.113Z,2.45
2023-02-18T01:53:51.469Z,2.39
2023-02-18T01:56:26.451Z,2.37
2023-02-18T01:59:00.634Z,2.37
2023-02-18T02:01:32.865Z,2.37
2023-02-18T02:04:04.511Z,2.37
2023-02-18T02:06:33.679Z,2.40
2023-02-18T02:09:07.667Z,2.44
2023-02-18T02:12:08.915Z,2.48
2023-02-18T02:15:17.610Z,2.54
2023-02-18T02:17:56.023Z,2.61
2023-02-18T02:20:59.568Z,2.64
2023-02-18T02:23:59.249Z,2.67
2023-02-18T02:26:52.734Z,2.71
2023-02-18T02:30:24.957Z,2.75
2023-02-18T02:33:26.287Z,2.78
2023-02-18T02:36:16.768Z,2.79
2023-02-18T02:38:58.800Z,2.79
2023-02-18T02:41:52.374Z,2.78
2023-02-18T02:44:35.342Z,2.75
2023-02-18T02:47:58.001Z,2.74
2023-02-18T02:50:44.850Z,2.69
2023-02-18T02:53:31.101Z,2.62
2023-02-18T02:56:00.780Z,2.54
2023-02-18T02:58:35.473Z,2.52
2023-02-18T03:01:11.255Z,2.55
2023-02-18T03:04:11.119Z,2.54
2023-02-18T03:06:58.835Z,2.55
2023-02-18T03:10:00.710Z,2.56
2023-02-18T03:13:06.257Z,2.58
2023-02-18T03:15:58.043Z,2.61
2023-02-18T03:18:39.341Z,2.60
2023-02-18T03:21:11.674Z,2.59
2023-02-18T03:24:10.534Z,2.63
2023-02-18T03:26:49.269Z,2.66
2023-02-18T03:29:22.028Z,2.71
2023-02-18T03:31:58.125Z,2.77
2023-02-18T03:34:36.315Z,2.82
2023-02-18T03:37:10.374Z,2.86
2023-02-18T03:39:47.106Z,2.89
2023-02-18T03:42:26.168Z,2.92
2023-02-18T03:44:56.958Z,2.94
2023-02-18T03:47:26.726Z,2.93
2023-02-18T03:49:56.038Z,2.93
2023-02-18T03:52:25.844Z,2.92
2023-02-18T03:54:55.206Z,2.93
2023-02-18T03:57:25.245Z,2.92
2023-02-18T03:59:54.771Z,2.89
2023-02-18T04:02:24.193Z,2.85
2023-02-18T04:04:57.243Z,2.83
2023-02-18T04:07:28.390Z,2.81
2023-02-18T04:09:57.959Z,2.79
2023-02-18T04:12:27.916Z,2.78
2023-02-18T04:14:57.912Z,2.77
2023-02-18T04:17:28.008Z,2.76
2023-02-18T04:20:00.919Z,2.74
2023-02-18T04:22:33.143Z,2.73
2023-02-18T04:25:07.250Z,2.73
2023-02-18T04:27:37.070Z,2.71
2023-02-18T04:30:08.896Z,2.71
2023-02-18T04:32:42.357Z,2.74
2023-02-18T04:35:12.241Z,2.74
2023-02-18T04:37:42.529Z,2.75
2023-02-18T04:40:13.886Z,2.77
2023-02-18T04:42:44.363Z,2.82
2023-02-18T04:45:13.891Z,2.86
2023-02-18T04:47:44.594Z,2.89
2023-02-18T04:50:14.467Z,2.90
2023-02-18T04:52:43.968Z,2.92
2023-02-18T04:55:14.987Z,2.94
2023-02-18T04:57:44.631Z,2.95
2023-02-18T05:00:20.608Z,2.96
2023-02-18T05:02:49.619Z,2.98
2023-02-18T05:05:19.812Z,2.98
2023-02-18T05:07:49.695Z,3.01
2023-02-18T05:10:20.805Z,3.07
2023-02-18T05:12:51.060Z,3.11
2023-02-18T05:15:21.300Z,3.16
2023-02-18T05:17:51.934Z,3.18
2023-02-18T05:20:21.416Z,3.19
2023-02-18T05:22:51.357Z,3.20
2023-02-18T05:25:21.398Z,3.22
2023-02-18T05:27:51.336Z,3.26
2023-02-18T05:30:22.811Z,3.25
2023-02-18T05:32:52.663Z,3.23
2023-02-18T05:35:22.549Z,3.23
2023-02-18T05:37:52.437Z,3.23
2023-02-18T05:40:22.467Z,3.24
2023-02-18T05:42:51.975Z,3.27
2023-02-18T05:45:22.204Z,3.24
2023-02-18T05:47:54.705Z,3.23
2023-02-18T05:50:26.923Z,3.20
2023-02-18T05:52:58.418Z,3.17
2023-02-18T05:55:29.294Z,3.16
2023-02-18T05:57:58.936Z,3.18
2023-02-18T06:00:35.389Z,3.20
2023-02-18T06:03:07.565Z,3.21
2023-02-18T06:05:40.006Z,3.25
2023-02-18T06:08:12.534Z,3.29
2023-02-18T06:10:42.325Z,3.32
2023-02-18T06:13:19.255Z,3.35
2023-02-18T06:15:54.031Z,3.40
2023-02-18T06:18:26.018Z,3.46
2023-02-18T06:20:56.263Z,3.51
2023-02-18T06:23:28.525Z,3.54
2023-02-18T06:26:00.325Z,3.55
2023-02-18T06:28:31.014Z,3.56
2023-02-18T06:31:01.668Z,3.57
2023-02-18T06:33:36.441Z,3.57
2023-02-18T06:36:09.854Z,3.56
2023-02-18T06:38:45.675Z,3.57
2023-02-18T06:41:16.033Z,3.57
2023-02-18T06:43:46.177Z,3.56
2023-02-18T06:46:16.250Z,3.59
2023-02-18T06:48:45.848Z,3.63
2023-02-18T06:51:16.925Z,3.65
2023-02-18T06:53:47.714Z,3.67
2023-02-18T06:56:18.458Z,3.70
2023-02-18T06:58:53.136Z,3.73
2023-02-18T07:01:23.477Z,3.78
2023-02-18T07:03:53.674Z,4.08
2023-02-18T07:06:22.948Z,4.40
2023-02-18T07:08:53.214Z,4.60
2023-02-18T07:11:23.286Z,4.80
2023-02-18T07:13:53.779Z,4.95
2023-02-18T07:16:23.569Z,5.41
2023-02-18T07:18:53.537Z,5.96
2023-02-18T07:21:25.633Z,6.38
2023-02-18T07:23:55.168Z,6.90
2023-02-18T07:26:29.179Z,7.24
2023-02-18T07:29:00.028Z,7.59
2023-02-18T07:31:30.735Z,7.87
2023-02-18T07:34:00.415Z,8.13
2023-02-18T07:36:30.120Z,8.34
2023-02-18T07:39:00.341Z,8.55
2023-02-18T07:41:29.892Z,8.73
2023-02-18T07:44:04.460Z,8.87
2023-02-18T07:46:42.327Z,9.00
2023-02-18T07:49:12.342Z,9.13
2023-02-18T07:51:42.279Z,9.26
2023-02-18T07:54:12.990Z,9.40
2023-02-18T07:56:43.670Z,9.49
2023-02-18T07:59:15.127Z,9.58
2023-02-18T08:01:45.211Z,9.65
2023-02-18T08:04:15.905Z,9.70
2023-02-18T08:06:49.222Z,9.74
2023-02-18T08:09:19.111Z,9.78
2023-02-18T08:11:52.084Z,9.80
2023-02-18T08:14:22.295Z,9.83
2023-02-18T08:16:52.375Z,9.84
2023-02-18T08:19:24.046Z,9.84
2023-02-18T08:21:55.129Z,9.85
2023-02-18T08:25:03.116Z,9.85
2023-02-18T08:27:35.425Z,9.86
2023-02-18T08:30:08.135Z,9.87
2023-02-18T08:32:38.311Z,9.88
2023-02-18T08:35:13.419Z,9.91
2023-02-18T08:37:53.127Z,9.94
2023-02-18T08:40:26.057Z,9.99
2023-02-18T08:42:57.941Z,10.01
2023-02-18T08:45:27.608Z,10.04
2023-02-18T08:48:18.911Z,10.06
2023-02-18T08:50:48.850Z,10.07
2023-02-18T08:53:19.570Z,10.07
2023-02-18T08:55:49.464Z,10.08
2023-02-18T08:58:19.978Z,10.09
2023-02-18T09:00:49.359Z,10.10
2023-02-18T09:03:20.403Z,10.10
2023-02-18T09:05:50.254Z,10.10
2023-02-18T09:08:19.995Z,10.08
2023-02-18T09:10:49.758Z,10.09
2023-02-18T09:13:19.551Z,10.06
2023-02-18T09:16:14.124Z,10.04
2023-02-18T09:19:00.446Z,10.06
2023-02-18T09:21:30.836Z,10.11
2023-02-18T09:24:01.204Z,10.17
2023-02-18T09:26:49.403Z,10.21
2023-02-18T09:29:20.371Z,10.22
2023-02-18T09:31:51.222Z,10.23
2023-02-18T09:34:23.652Z,10.23
2023-02-18T09:36:55.693Z,10.23
2023-02-18T09:39:34.068Z,10.25
2023-02-18T09:42:11.049Z,10.27
2023-02-18T09:44:49.430Z,10.31
2023-02-18T09:47:39.490Z,10.35
2023-02-18T09:50:31.812Z,10.39
2023-02-18T09:53:04.492Z,10.41
2023-02-18T09:55:41.613Z,10.43
2023-02-18T09:58:18.197Z,10.45
2023-02-18T10:01:22.320Z,10.45
2023-02-18T10:03:52.827Z,10.44
2023-02-18T10:06:31.588Z,10.44
2023-02-18T10:09:24.975Z,10.43
2023-02-18T10:12:17.038Z,10.43
2023-02-18T10:14:54.739Z,10.44
2023-02-18T10:17:46.966Z,10.47
2023-02-18T10:20:39.792Z,10.45
2023-02-18T10:23:11.658Z,10.47
2023-02-18T10:25:46.866Z,10.48
2023-02-18T10:28:17.882Z,10.47
2023-02-18T10:30:58.560Z,10.44
2023-02-18T10:33:36.709Z,10.40
2023-02-18T10:36:32.146Z,10.35
2023-02-18T10:39:33.449Z,10.33
2023-02-18T10:42:17.818Z,10.34
2023-02-18T10:45:12.792Z,10.36
2023-02-18T10:48:01.289Z,10.40
2023-02-18T10:50:43.551Z,10.44
2023-02-18T10:53:22.954Z,10.52
2023-02-18T10:55:55.234Z,10.58
2023-02-18T10:58:35.955Z,10.65
2023-02-18T11:01:16.324Z,10.74
2023-02-18T11:04:06.087Z,10.87
2023-02-18T11:06:48.642Z,11.02
2023-02-18T11:09:36.688Z,11.11
2023-02-18T11:12:27.154Z,11.21
2023-02-18T11:15:18.340Z,11.32
2023-02-18T11:17:51.413Z,11.41
2023-02-18T11:20:30.488Z,11.51
2023-02-18T11:23:08.897Z,11.69
2023-02-18T11:25:42.132Z,11.85
2023-02-18T11:28:18.685Z,11.95
2023-02-18T11:30:54.938Z,12.10
2023-02-18T11:33:35.808Z,12.25
2023-02-18T11:36:15.782Z,12.48
2023-02-18T11:38:51.353Z,12.66
2023-02-18T11:41:31.839Z,12.77
2023-02-18T11:44:03.543Z,12.86
2023-02-18T11:46:34.506Z,13.10
2023-02-18T11:49:26.386Z,13.28
2023-02-18T11:52:16.343Z,13.43
2023-02-18T11:55:06.545Z,13.43
2023-02-18T11:57:41.994Z,13.40
2023-02-18T12:00:25.518Z,13.46
2023-02-18T12:02:59.204Z,13.48
2023-02-18T12:05:33.228Z,13.57
2023-02-18T12:08:19.228Z,13.74
2023-02-18T12:10:53.970Z,14.18
2023-02-18T12:13:35.155Z,14.35
2023-02-18T12:16:27.192Z,14.37
2023-02-18T12:19:21.770Z,14.28
2023-02-18T12:21:56.281Z,13.92
2023-02-18T12:25:10.817Z,13.86
2023-02-18T12:27:51.508Z,13.74
2023-02-18T12:30:53.444Z,13.70
2023-02-18T12:33:28.027Z,13.68
2023-02-18T12:36:07.593Z,13.77
2023-02-18T12:38:56.521Z,14.02
2023-02-18T12:41:45.362Z,14.21
2023-02-18T12:44:35.100Z,14.32
2023-02-18T12:47:23.669Z,14.20
2023-02-18T12:50:01.530Z,14.19
2023-02-18T12:53:05.282Z,14.15
2023-02-18T12:55:54.122Z,14.17
2023-02-18T12:58:35.172Z,14.14
2023-02-18T13:01:47.875Z,13.97
2023-02-18T13:04:26.556Z,13.89
2023-02-18T13:07:33.519Z,13.71
2023-02-18T13:10:24.465Z,13.47
2023-02-18T13:13:01.879Z,13.27
2023-02-18T13:15:33.766Z,13.14
2023-02-18T13:18:09.658Z,13.12
2023-02-18T13:20:47.118Z,13.03
2023-02-18T13:23:28.757Z,12.99
2023-02-18T13:26:02.860Z,12.96
2023-02-18T13:28:42.098Z,12.95
2023-02-18T13:31:53.049Z,12.91
2023-02-18T13:34:51.487Z,12.88
2023-02-18T13:37:34.666Z,12.81
2023-02-18T13:40:09.289Z,12.78
2023-02-18T13:42:39.580Z,12.74
2023-02-18T13:45:33.544Z,12.70
2023-02-18T13:48:27.507Z,12.66
2023-02-18T13:51:06.679Z,12.57
2023-02-18T13:53:43.407Z,12.48
2023-02-18T13:56:26.931Z,12.44
2023-02-18T13:59:11.461Z,12.38
2023-02-18T14:01:49.851Z,12.29
2023-02-18T14:04:56.758Z,12.21
2023-02-18T14:07:46.869Z,12.12
2023-02-18T14:10:19.748Z,12.07
2023-02-18T14:13:42.209Z,12.02
2023-02-18T14:16:12.793Z,11.92
2023-02-18T14:18:51.151Z,11.83
2023-02-18T14:21:37.541Z,11.75
2023-02-18T14:24:10.932Z,11.67
2023-02-18T14:26:49.481Z,11.60
2023-02-18T14:29:31.578Z,11.54
2023-02-18T14:32:05.425Z,11.51
2023-02-18T14:34:46.682Z,11.45
2023-02-18T14:37:44.380Z,11.40
2023-02-18T14:40:37.112Z,11.38
2023-02-18T14:43:32.177Z,11.35
2023-02-18T14:46:11.297Z,11.31
2023-02-18T14:48:58.529Z,11.28
2023-02-18T14:51:32.249Z,11.22
2023-02-18T14:54:15.583Z,11.16
2023-02-18T14:57:01.445Z,11.13
2023-02-18T14:59:44.751Z,11.07
2023-02-18T15:02:28.049Z,11.02
2023-02-18T15:05:23.093Z,10.97
2023-02-18T15:08:17.705Z,10.93
2023-02-18T15:11:04.031Z,10.90
2023-02-18T15:13:47.357Z,10.86
2023-02-18T15:16:34.202Z,10.81
2023-02-18T15:19:07.088Z,10.76
2023-02-18T15:21:43.644Z,10.72
2023-02-18T15:24:33.341Z,10.69
2023-02-18T15:27:24.041Z,10.64
2023-02-18T15:29:58.809Z,10.63
2023-02-18T15:32:32.126Z,10.60
2023-02-18T15:35:14.959Z,10.58
2023-02-18T15:37:56.734Z,10.54
2023-02-18T15:40:41.167Z,10.53
2023-02-18T15:43:18.444Z,10.51
2023-02-18T15:45:55.661Z,10.48
2023-02-18T15:48:47.908Z,10.47
2023-02-18T15:51:25.548Z,10.46
2023-02-18T15:54:00.136Z,10.44
2023-02-18T15:56:41.911Z,10.42
2023-02-18T15:59:21.850Z,10.40
2023-02-18T16:02:10.748Z,10.40
2023-02-18T16:04:48.684Z,10.38
2023-02-18T16:07:33.204Z,10.36
2023-02-18T16:10:37.293Z,10.35
2023-02-18T16:13:08.804Z,10.36
2023-02-18T16:15:41.280Z,10.35
2023-02-18T16:18:37.166Z,10.36
2023-02-18T16:21:20.477Z,10.31
2023-02-18T16:24:00.125Z,10.30
2023-02-18T16:26:45.086Z,10.32
2023-02-18T16:29:36.963Z,10.33
2023-02-18T16:32:07.455Z,10.34
2023-02-18T16:34:38.486Z,10.34
2023-02-18T16:37:31.179Z,10.34
2023-02-18T16:40:01.545Z,10.34
2023-02-18T16:42:31.327Z,10.32
2023-02-18T16:45:01.795Z,10.32
2023-02-18T16:47:31.901Z,10.32
2023-02-18T16:50:05.624Z,10.32
2023-02-18T16:52:35.654Z,10.33
2023-02-18T16:55:19.353Z,10.32
2023-02-18T16:57:52.404Z,10.33
2023-02-18T17:00:24.523Z,10.32
2023-02-18T17:02:57.535Z,10.30
2023-02-18T17:05:32.563Z,10.29
2023-02-18T17:08:27.976Z,10.29
2023-02-18T17:10:59.298Z,10.28
2023-02-18T17:13:32.007Z,10.26
2023-02-18T17:16:04.431Z,10.23
2023-02-18T17:18:34.580Z,10.18
2023-02-18T17:21:07.478Z,10.09
2023-02-18T17:23:38.890Z,10.04
2023-02-18T17:26:27.554Z,10.00
2023-02-18T17:29:00.978Z,9.95
2023-02-18T17:31:35.720Z,9.90
2023-02-18T17:34:08.625Z,9.85
2023-02-18T17:36:43.187Z,9.83
2023-02-18T17:39:18.810Z,9.79
2023-02-18T17:41:49.510Z,9.72
2023-02-18T17:44:24.257Z,9.67
2023-02-18T17:46:55.309Z,9.61
2023-02-18T17:49:25.748Z,9.55
2023-02-18T17:51:57.851Z,9.52
2023-02-18T17:54:32.343Z,9.48
2023-02-18T17:57:02.135Z,9.44
2023-02-18T17:59:35.128Z,9.38
2023-02-18T18:02:25.693Z,9.35
2023-02-18T18:04:59.921Z,9.32
2023-02-18T18:07:32.898Z,9.27
2023-02-18T18:10:02.954Z,9.20
2023-02-18T18:12:36.269Z,9.13
2023-02-18T18:15:23.899Z,9.06
2023-02-18T18:17:58.879Z,8.99
2023-02-18T18:20:32.701Z,8.93
2023-02-18T18:23:08.968Z,8.92
2023-02-18T18:25:43.494Z,8.96
2023-02-18T18:28:22.532Z,8.97
2023-02-18T18:30:56.500Z,8.97
2023-02-18T18:33:36.173Z,8.97
2023-02-18T18:36:08.308Z,8.95
2023-02-18T18:38:44.044Z,8.94
2023-02-18T18:41:19.727Z,8.93
2023-02-18T18:43:50.115Z,8.96
2023-02-18T18:46:25.512Z,8.99
2023-02-18T18:48:55.171Z,9.02
2023-02-18T18:51:30.801Z,9.03
2023-02-18T18:54:01.908Z,9.03
2023-02-18T18:56:31.335Z,9.04
2023-02-18T18:59:09.097Z,9.08
2023-02-18T19:01:40.098Z,9.14
2023-02-18T19:04:10.200Z,9.21
2023-02-18T19:06:41.205Z,9.27
2023-02-18T19:09:25.764Z,9.33
2023-02-18T19:12:04.385Z,9.39
2023-02-18T19:14:33.684Z,9.43
2023-02-18T19:17:04.571Z,9.46
2023-02-18T19:19:33.926Z,9.49
2023-02-18T19:22:09.266Z,9.55
2023-02-18T19:24:39.689Z,9.56
2023-02-18T19:27:10.701Z,9.52
2023-02-18T19:29:41.180Z,9.46
2023-02-18T19:32:11.536Z,9.39
2023-02-18T19:34:42.534Z,9.33
2023-02-18T19:37:12.675Z,9.38
2023-02-18T19:39:42.121Z,9.46
2023-02-18T19:42:56.347Z,9.55
2023-02-18T19:45:26.206Z,9.62
2023-02-18T19:48:17.698Z,9.64
2023-02-18T19:50:55.564Z,9.72
2023-02-18T19:53:26.536Z,9.81
2023-02-18T19:56:11.957Z,9.87
2023-02-18T19:58:44.754Z,9.94
2023-02-18T20:01:28.418Z,9.94
2023-02-18T20:04:11.740Z,9.92
2023-02-18T20:06:42.110Z,9.93
2023-02-18T20:09:12.896Z,9.89
2023-02-18T20:11:52.365Z,9.85
2023-02-18T20:14:24.381Z,9.79
2023-02-18T20:16:56.682Z,9.72
2023-02-18T20:19:30.910Z,9.62
2023-02-18T20:22:02.807Z,9.50
2023-02-18T20:24:32.566Z,9.41
2023-02-18T20:27:08.478Z,9.33
2023-02-18T20:33:20.069Z,9.14
2023-02-18T20:35:59.798Z,9.03
2023-02-18T20:38:31.300Z,8.91
2023-02-18T20:41:18.234Z,8.78
2023-02-18T20:43:49.222Z,8.61
2023-02-18T20:46:22.510Z,8.54
2023-02-18T20:48:52.815Z,8.45
2023-02-18T20:51:23.692Z,8.38
2023-02-18T20:54:00.287Z,8.31
2023-02-18T20:56:31.145Z,8.25
2023-02-18T20:59:02.369Z,8.19
2023-02-18T21:01:33.346Z,8.15
2023-02-18T21:04:04.326Z,8.12
2023-02-18T21:06:34.427Z,8.15
2023-02-18T21:09:06.148Z,8.27
2023-02-18T21:11:35.580Z,8.48
2023-02-18T21:14:05.986Z,8.65
2023-02-18T21:16:41.602Z,8.85
2023-02-18T21:19:17.532Z,9.08
2023-02-18T21:21:47.967Z,9.27
2023-02-18T21:24:18.354Z,9.43
2023-02-18T21:26:48.004Z,9.60
2023-02-18T21:29:17.900Z,9.76
2023-02-18T21:31:47.920Z,9.91
2023-02-18T21:34:18.131Z,10.06
2023-02-18T21:36:47.366Z,10.18
2023-02-18T21:39:17.412Z,10.28
2023-02-18T21:41:47.353Z,10.39
2023-02-18T21:44:17.372Z,10.47
2023-02-18T21:46:47.013Z,10.54
2023-02-18T21:49:18.213Z,10.56
2023-02-18T21:52:02.471Z,10.57
2023-02-18T21:54:38.013Z,10.55
2023-02-18T21:57:12.401Z,10.51
2023-02-18T21:59:42.739Z,10.48
2023-02-18T22:02:17.826Z,10.44
2023-02-18T22:04:49.568Z,10.38
2023-02-18T22:07:21.634Z,10.31
2023-02-18T22:09:54.290Z,10.28
2023-02-18T22:12:31.216Z,10.25
2023-02-18T22:15:00.945Z,10.20
2023-02-18T22:17:32.713Z,10.14
2023-02-18T22:20:05.905Z,10.10
2023-02-18T22:22:36.859Z,10.04
2023-02-18T22:25:11.151Z,9.99
2023-02-18T22:27:40.988Z,9.94
2023-02-18T22:30:21.464Z,9.88
2023-02-18T22:32:53.821Z,9.82
2023-02-18T22:35:23.885Z,9.75
2023-02-18T22:37:54.862Z,9.69
2023-02-18T22:40:27.522Z,9.63
2023-02-18T22:42:58.212Z,9.59
2023-02-18T22:45:27.655Z,9.53
2023-02-18T22:47:58.109Z,9.48
2023-02-18T22:50:31.524Z,9.43
2023-02-18T22:53:02.400Z,9.37
2023-02-18T22:55:32.742Z,9.33
2023-02-18T22:58:05.677Z,9.31
2023-02-18T23:00:38.785Z,9.30
2023-02-18T23:03:09.692Z,9.28
2023-02-18T23:05:41.843Z,9.26
2023-02-18T23:08:11.942Z,9.23
2023-02-18T23:10:42.019Z,9.20
2023-02-18T23:13:12.091Z,9.16
2023-02-18T23:15:42.051Z,9.11
2023-02-18T23:18:15.442Z,9.07
2023-02-18T23:21:05.361Z,9.02
2023-02-18T23:23:39.444Z,8.98
2023-02-18T23:26:08.667Z,8.94
2023-02-18T23:28:48.614Z,8.90
2023-02-18T23:31:25.149Z,8.89
2023-02-18T23:34:01.101Z,8.89
2023-02-18T23:36:34.024Z,8.90
2023-02-18T23:39:11.434Z,8.94
2023-02-18T23:41:41.812Z,8.98
2023-02-18T23:44:15.863Z,9.02
2023-02-18T23:46:46.757Z,9.07
2023-02-18T23:49:26.535Z,9.12
2023-02-18T23:51:58.568Z,9.17
2023-02-18T23:54:28.196Z,9.22
2023-02-18T23:56:58.098Z,9.25
2023-02-18T23:59:27.636Z,9.30
